sensor_id;sensor_type;location;lat;lon;timestamp;P1;durP1;ratioP1;P2;durP2;ratioP2
10653;SDS011;5375;51.250;6.776;2023-04-01T00:02:25;2.43;;;0.63;;
10653;SDS011;5375;51.250;6.776;2023-04-01T00:04:51;2.87;;;0.97;;
10653;SDS011;5375;51.250;6.776;2023-04-01T00:07:19;1.60;;;0.70;;
10653;SDS011;5375;51.250;6.776;2023-04-01T00:09:45;2.13;;;0.70;;
10653;SDS011;5375;51.250;6.776;2023-04-01T00:12:11;1.27;;;0.57;;
10653;SDS011;5375;51.250;6.776;2023-04-01T00:14:38;1.63;;;0.60;;
10653;SDS011;5375;51.250;6.776;2023-04-01T00:17:04;1.57;;;0.80;;
10653;SDS011;5375;51.250;6.776;2023-04-01T00:19:30;1.57;;;0.70;;
10653;SDS011;5375;51.250;6.776;2023-04-01T00:21:57;0.97;;;0.53;;
10653;SDS011;5375;51.250;6.776;2023-04-01T00:24:25;1.63;;;0.60;;
10653;SDS011;5375;51.250;6.776;2023-04-01T00:26:52;1.10;;;0.57;;
10653;SDS011;5375;51.250;6.776;2023-04-01T00:29:19;1.33;;;0.80;;
10653;SDS011;5375;51.250;6.776;2023-04-01T00:31:45;1.57;;;0.70;;
10653;SDS011;5375;51.250;6.776;2023-04-01T00:34:11;2.20;;;0.70;;
10653;SDS011;5375;51.250;6.776;2023-04-01T00:36:37;1.93;;;0.53;;
10653;SDS011;5375;51.250;6.776;2023-04-01T00:39:03;1.83;;;0.70;;
10653;SDS011;5375;51.250;6.776;2023-04-01T00:41:29;0.87;;;0.53;;
10653;SDS011;5375;51.250;6.776;2023-04-01T00:44:11;0.93;;;0.60;;
10653;SDS011;5375;51.250;6.776;2023-04-01T00:46:41;1.20;;;0.67;;
10653;SDS011;5375;51.250;6.776;2023-04-01T00:49:07;1.87;;;0.70;;
10653;SDS011;5375;51.250;6.776;2023-04-01T00:51:34;1.40;;;0.90;;
10653;SDS011;5375;51.250;6.776;2023-04-01T00:54:03;1.97;;;0.67;;
10653;SDS011;5375;51.250;6.776;2023-04-01T00:56:35;2.17;;;0.60;;
10653;SDS011;5375;51.250;6.776;2023-04-01T00:59:06;1.40;;;0.60;;
10653;SDS011;5375;51.250;6.776;2023-04-01T01:01:36;1.43;;;0.60;;
10653;SDS011;5375;51.250;6.776;2023-04-01T01:04:03;2.43;;;0.80;;
10653;SDS011;5375;51.250;6.776;2023-04-01T01:17:13;1.10;;;0.47;;
10653;SDS011;5375;51.250;6.776;2023-04-01T01:34:20;1.90;;;0.70;;
10653;SDS011;5375;51.250;6.776;2023-04-01T01:36:55;2.07;;;0.63;;
10653;SDS011;5375;51.250;6.776;2023-04-01T01:39:26;1.27;;;0.60;;
10653;SDS011;5375;51.250;6.776;2023-04-01T01:42:01;0.80;;;0.50;;
10653;SDS011;5375;51.250;6.776;2023-04-01T01:44:30;1.63;;;0.60;;
10653;SDS011;5375;51.250;6.776;2023-04-01T01:46:59;1.27;;;0.50;;
10653;SDS011;5375;51.250;6.776;2023-04-01T01:49:25;1.13;;;0.50;;
10653;SDS011;5375;51.250;6.776;2023-04-01T01:51:55;2.70;;;0.50;;
10653;SDS011;5375;51.250;6.776;2023-04-01T01:54:22;0.97;;;0.50;;
10653;SDS011;5375;51.250;6.776;2023-04-01T01:56:48;1.40;;;0.75;;
10653;SDS011;5375;51.250;6.776;2023-04-01T01:59:17;1.23;;;0.50;;
10653;SDS011;5375;51.250;6.776;2023-04-01T02:01:46;1.23;;;0.60;;
10653;SDS011;5375;51.250;6.776;2023-04-01T02:04:15;1.17;;;0.50;;
10653;SDS011;5375;51.250;6.776;2023-04-01T02:06:46;2.23;;;0.60;;
10653;SDS011;5375;51.250;6.776;2023-04-01T02:09:37;1.37;;;0.50;;
10653;SDS011;5375;51.250;6.776;2023-04-01T02:12:07;0.67;;;0.50;;
10653;SDS011;5375;51.250;6.776;2023-04-01T02:17:22;1.20;;;0.50;;
10653;SDS011;5375;51.250;6.776;2023-04-01T02:19:56;0.93;;;0.50;;
10653;SDS011;5375;51.250;6.776;2023-04-01T02:22:26;0.90;;;0.50;;
10653;SDS011;5375;51.250;6.776;2023-04-01T02:24:56;1.33;;;0.43;;
10653;SDS011;5375;51.250;6.776;2023-04-01T02:27:24;1.00;;;0.50;;
10653;SDS011;5375;51.250;6.776;2023-04-01T02:29:51;0.90;;;0.50;;
10653;SDS011;5375;51.250;6.776;2023-04-01T02:32:18;1.03;;;0.57;;
10653;SDS011;5375;51.250;6.776;2023-04-01T02:34:47;1.60;;;0.40;;
10653;SDS011;5375;51.250;6.776;2023-04-01T02:37:14;0.80;;;0.50;;
10653;SDS011;5375;51.250;6.776;2023-04-01T02:39:44;1.03;;;0.40;;
10653;SDS011;5375;51.250;6.776;2023-04-01T02:42:09;1.00;;;0.50;;
10653;SDS011;5375;51.250;6.776;2023-04-01T02:44:35;1.40;;;0.50;;
10653;SDS011;5375;51.250;6.776;2023-04-01T02:47:01;1.37;;;0.63;;
10653;SDS011;5375;51.250;6.776;2023-04-01T02:49:30;1.00;;;0.50;;
10653;SDS011;5375;51.250;6.776;2023-04-01T02:51:55;0.97;;;0.50;;
10653;SDS011;5375;51.250;6.776;2023-04-01T02:54:21;1.10;;;0.50;;
10653;SDS011;5375;51.250;6.776;2023-04-01T02:56:47;1.00;;;0.50;;
10653;SDS011;5375;51.250;6.776;2023-04-01T02:59:13;1.13;;;0.50;;
10653;SDS011;5375;51.250;6.776;2023-04-01T03:01:39;0.83;;;0.40;;
10653;SDS011;5375;51.250;6.776;2023-04-01T03:04:05;1.27;;;0.50;;
10653;SDS011;5375;51.250;6.776;2023-04-01T03:06:30;0.87;;;0.40;;
10653;SDS011;5375;51.250;6.776;2023-04-01T03:08:56;0.93;;;0.50;;
10653;SDS011;5375;51.250;6.776;2023-04-01T03:11:22;0.90;;;0.40;;
10653;SDS011;5375;51.250;6.776;2023-04-01T03:13:48;1.97;;;0.53;;
10653;SDS011;5375;51.250;6.776;2023-04-01T03:16:15;1.37;;;0.50;;
10653;SDS011;5375;51.250;6.776;2023-04-01T03:18:41;2.73;;;0.60;;
10653;SDS011;5375;51.250;6.776;2023-04-01T03:21:14;1.00;;;0.40;;
10653;SDS011;5375;51.250;6.776;2023-04-01T03:23:41;0.60;;;0.30;;
10653;SDS011;5375;51.250;6.776;2023-04-01T03:26:07;1.00;;;0.40;;
10653;SDS011;5375;51.250;6.776;2023-04-01T03:28:36;0.83;;;0.30;;
10653;SDS011;5375;51.250;6.776;2023-04-01T03:31:02;0.60;;;0.40;;
10653;SDS011;5375;51.250;6.776;2023-04-01T03:33:28;0.93;;;0.47;;
10653;SDS011;5375;51.250;6.776;2023-04-01T03:36:03;0.70;;;0.30;;
10653;SDS011;5375;51.250;6.776;2023-04-01T03:38:31;0.80;;;0.40;;
10653;SDS011;5375;51.250;6.776;2023-04-01T03:41:01;0.90;;;0.40;;
10653;SDS011;5375;51.250;6.776;2023-04-01T03:43:27;0.63;;;0.30;;
10653;SDS011;5375;51.250;6.776;2023-04-01T03:45:53;1.03;;;0.50;;
10653;SDS011;5375;51.250;6.776;2023-04-01T03:48:23;0.80;;;0.50;;
10653;SDS011;5375;51.250;6.776;2023-04-01T03:50:50;0.90;;;0.40;;
10653;SDS011;5375;51.250;6.776;2023-04-01T03:53:16;1.00;;;0.50;;
10653;SDS011;5375;51.250;6.776;2023-04-01T03:55:42;1.03;;;0.40;;
10653;SDS011;5375;51.250;6.776;2023-04-01T03:58:08;0.70;;;0.40;;
10653;SDS011;5375;51.250;6.776;2023-04-01T04:00:34;0.73;;;0.33;;
10653;SDS011;5375;51.250;6.776;2023-04-01T04:03:01;0.67;;;0.30;;
10653;SDS011;5375;51.250;6.776;2023-04-01T04:05:27;0.73;;;0.40;;
10653;SDS011;5375;51.250;6.776;2023-04-01T04:07:53;0.80;;;0.43;;
10653;SDS011;5375;51.250;6.776;2023-04-01T04:10:19;0.77;;;0.30;;
10653;SDS011;5375;51.250;6.776;2023-04-01T04:12:45;0.87;;;0.30;;
10653;SDS011;5375;51.250;6.776;2023-04-01T04:15:11;0.47;;;0.30;;
10653;SDS011;5375;51.250;6.776;2023-04-01T04:17:37;0.90;;;0.50;;
10653;SDS011;5375;51.250;6.776;2023-04-01T04:20:03;1.23;;;0.40;;
10653;SDS011;5375;51.250;6.776;2023-04-01T04:22:32;1.00;;;0.40;;
10653;SDS011;5375;51.250;6.776;2023-04-01T04:24:58;0.87;;;0.53;;
10653;SDS011;5375;51.250;6.776;2023-04-01T04:27:24;1.30;;;0.50;;
10653;SDS011;5375;51.250;6.776;2023-04-01T04:29:50;0.63;;;0.37;;
10653;SDS011;5375;51.250;6.776;2023-04-01T04:32:15;0.50;;;0.30;;
10653;SDS011;5375;51.250;6.776;2023-04-01T04:34:42;0.80;;;0.50;;
10653;SDS011;5375;51.250;6.776;2023-04-01T04:37:08;0.60;;;0.40;;
10653;SDS011;5375;51.250;6.776;2023-04-01T04:39:33;0.87;;;0.33;;
10653;SDS011;5375;51.250;6.776;2023-04-01T04:41:59;1.23;;;0.43;;
10653;SDS011;5375;51.250;6.776;2023-04-01T04:44:30;0.77;;;0.40;;
10653;SDS011;5375;51.250;6.776;2023-04-01T04:46:56;1.33;;;0.50;;
10653;SDS011;5375;51.250;6.776;2023-04-01T04:49:21;2.10;;;0.50;;
10653;SDS011;5375;51.250;6.776;2023-04-01T04:51:48;1.83;;;0.80;;
10653;SDS011;5375;51.250;6.776;2023-04-01T04:54:14;0.60;;;0.40;;
10653;SDS011;5375;51.250;6.776;2023-04-01T04:56:40;1.33;;;0.40;;
10653;SDS011;5375;51.250;6.776;2023-04-01T04:59:06;1.53;;;0.50;;
10653;SDS011;5375;51.250;6.776;2023-04-01T05:01:35;1.53;;;0.50;;
10653;SDS011;5375;51.250;6.776;2023-04-01T05:04:00;0.50;;;0.30;;
10653;SDS011;5375;51.250;6.776;2023-04-01T05:06:27;0.63;;;0.30;;
10653;SDS011;5375;51.250;6.776;2023-04-01T05:08:54;1.13;;;0.57;;
10653;SDS011;5375;51.250;6.776;2023-04-01T05:11:22;1.47;;;0.70;;
10653;SDS011;5375;51.250;6.776;2023-04-01T05:13:51;0.80;;;0.30;;
10653;SDS011;5375;51.250;6.776;2023-04-01T05:16:22;1.23;;;0.40;;
10653;SDS011;5375;51.250;6.776;2023-04-01T05:18:47;2.47;;;0.60;;
10653;SDS011;5375;51.250;6.776;2023-04-01T05:21:13;2.23;;;0.50;;
10653;SDS011;5375;51.250;6.776;2023-04-01T05:23:41;0.77;;;0.40;;
10653;SDS011;5375;51.250;6.776;2023-04-01T05:26:12;0.77;;;0.30;;
10653;SDS011;5375;51.250;6.776;2023-04-01T05:28:38;0.83;;;0.50;;
10653;SDS011;5375;51.250;6.776;2023-04-01T05:31:05;0.60;;;0.40;;
10653;SDS011;5375;51.250;6.776;2023-04-01T05:33:33;0.73;;;0.37;;
10653;SDS011;5375;51.250;6.776;2023-04-01T05:36:10;0.50;;;0.27;;
10653;SDS011;5375;51.250;6.776;2023-04-01T05:38:37;0.93;;;0.40;;
10653;SDS011;5375;51.250;6.776;2023-04-01T05:41:04;0.50;;;0.40;;
10653;SDS011;5375;51.250;6.776;2023-04-01T05:43:30;0.70;;;0.40;;
10653;SDS011;5375;51.250;6.776;2023-04-01T05:46:02;0.60;;;0.40;;
10653;SDS011;5375;51.250;6.776;2023-04-01T05:48:29;0.80;;;0.37;;
10653;SDS011;5375;51.250;6.776;2023-04-01T05:50:55;0.83;;;0.40;;
10653;SDS011;5375;51.250;6.776;2023-04-01T05:53:20;0.43;;;0.30;;
10653;SDS011;5375;51.250;6.776;2023-04-01T05:55:47;0.70;;;0.47;;
10653;SDS011;5375;51.250;6.776;2023-04-01T05:58:13;0.47;;;0.30;;
10653;SDS011;5375;51.250;6.776;2023-04-01T06:00:40;0.60;;;0.30;;
10653;SDS011;5375;51.250;6.776;2023-04-01T06:03:06;2.33;;;0.50;;
10653;SDS011;5375;51.250;6.776;2023-04-01T06:05:37;0.73;;;0.40;;
10653;SDS011;5375;51.250;6.776;2023-04-01T06:08:05;1.27;;;0.50;;
10653;SDS011;5375;51.250;6.776;2023-04-01T06:24:58;0.97;;;0.50;;
10653;SDS011;5375;51.250;6.776;2023-04-01T06:30:42;1.47;;;0.40;;
10653;SDS011;5375;51.250;6.776;2023-04-01T06:33:19;0.73;;;0.30;;
10653;SDS011;5375;51.250;6.776;2023-04-01T06:44:40;0.50;;;0.40;;
10653;SDS011;5375;51.250;6.776;2023-04-01T06:55:32;0.63;;;0.40;;
10653;SDS011;5375;51.250;6.776;2023-04-01T06:58:24;0.97;;;0.60;;
10653;SDS011;5375;51.250;6.776;2023-04-01T07:01:06;0.80;;;0.40;;
10653;SDS011;5375;51.250;6.776;2023-04-01T07:03:36;2.93;;;0.67;;
10653;SDS011;5375;51.250;6.776;2023-04-01T07:06:12;1.33;;;1.00;;
10653;SDS011;5375;51.250;6.776;2023-04-01T07:08:45;3.37;;;0.50;;
10653;SDS011;5375;51.250;6.776;2023-04-01T07:11:22;1.13;;;0.50;;
10653;SDS011;5375;51.250;6.776;2023-04-01T07:13:53;2.27;;;0.60;;
10653;SDS011;5375;51.250;6.776;2023-04-01T07:16:45;0.87;;;0.50;;
10653;SDS011;5375;51.250;6.776;2023-04-01T07:19:31;1.03;;;0.57;;
10653;SDS011;5375;51.250;6.776;2023-04-01T07:24:54;1.10;;;0.53;;
10653;SDS011;5375;51.250;6.776;2023-04-01T07:27:23;2.00;;;0.60;;
10653;SDS011;5375;51.250;6.776;2023-04-01T07:29:49;0.80;;;0.50;;
10653;SDS011;5375;51.250;6.776;2023-04-01T07:32:38;2.13;;;0.50;;
10653;SDS011;5375;51.250;6.776;2023-04-01T07:37:57;0.90;;;0.50;;
10653;SDS011;5375;51.250;6.776;2023-04-01T07:48:58;1.27;;;0.63;;
10653;SDS011;5375;51.250;6.776;2023-04-01T07:52:00;4.00;;;0.77;;
10653;SDS011;5375;51.250;6.776;2023-04-01T07:54:45;2.03;;;0.67;;
10653;SDS011;5375;51.250;6.776;2023-04-01T08:11:04;2.20;;;0.70;;
10653;SDS011;5375;51.250;6.776;2023-04-01T08:21:35;5.17;;;0.60;;
10653;SDS011;5375;51.250;6.776;2023-04-01T08:24:49;2.30;;;0.80;;
10653;SDS011;5375;51.250;6.776;2023-04-01T08:27:12;0.80;;;0.50;;
10653;SDS011;5375;51.250;6.776;2023-04-01T08:29:56;0.60;;;0.43;;
10653;SDS011;5375;51.250;6.776;2023-04-01T08:32:39;2.00;;;0.52;;
10653;SDS011;5375;51.250;6.776;2023-04-01T08:38:05;1.03;;;0.50;;
10653;SDS011;5375;51.250;6.776;2023-04-01T08:43:12;2.03;;;0.50;;
10653;SDS011;5375;51.250;6.776;2023-04-01T08:46:18;1.83;;;0.50;;
10653;SDS011;5375;51.250;6.776;2023-04-01T08:57:34;1.00;;;0.50;;
10653;SDS011;5375;51.250;6.776;2023-04-01T09:08:56;3.20;;;0.50;;
10653;SDS011;5375;51.250;6.776;2023-04-01T09:29:19;0.83;;;0.30;;
10653;SDS011;5375;51.250;6.776;2023-04-01T09:41:20;3.00;;;0.50;;
10653;SDS011;5375;51.250;6.776;2023-04-01T10:23:09;1.43;;;0.60;;
10653;SDS011;5375;51.250;6.776;2023-04-01T10:34:05;1.50;;;0.50;;
10653;SDS011;5375;51.250;6.776;2023-04-01T10:36:53;0.90;;;0.50;;
10653;SDS011;5375;51.250;6.776;2023-04-01T10:56:15;1.47;;;0.43;;
10653;SDS011;5375;51.250;6.776;2023-04-01T10:59:05;0.40;;;0.40;;
10653;SDS011;5375;51.250;6.776;2023-04-01T11:10:47;0.97;;;0.53;;
10653;SDS011;5375;51.250;6.776;2023-04-01T11:16:47;0.63;;;0.40;;
10653;SDS011;5375;51.250;6.776;2023-04-01T11:41:56;0.77;;;0.57;;
10653;SDS011;5375;51.250;6.776;2023-04-01T11:44:30;0.40;;;0.40;;
10653;SDS011;5375;51.250;6.776;2023-04-01T12:06:58;1.47;;;1.07;;
10653;SDS011;5375;51.250;6.776;2023-04-01T12:14:52;2.03;;;0.70;;
10653;SDS011;5375;51.250;6.776;2023-04-01T12:17:46;1.70;;;0.87;;
10653;SDS011;5375;51.250;6.776;2023-04-01T12:28:54;1.57;;;1.00;;
10653;SDS011;5375;51.250;6.776;2023-04-01T12:34:24;1.23;;;1.00;;
10653;SDS011;5375;51.250;6.776;2023-04-01T13:10:04;1.57;;;0.97;;
10653;SDS011;5375;51.250;6.776;2023-04-01T13:29:50;2.23;;;1.10;;
10653;SDS011;5375;51.250;6.776;2023-04-01T13:32:19;1.10;;;0.93;;
10653;SDS011;5375;51.250;6.776;2023-04-01T13:35:10;1.70;;;1.07;;
10653;SDS011;5375;51.250;6.776;2023-04-01T13:40:55;1.80;;;0.90;;
10653;SDS011;5375;51.250;6.776;2023-04-01T13:43:31;1.80;;;1.03;;
10653;SDS011;5375;51.250;6.776;2023-04-01T13:51:33;1.87;;;0.93;;
10653;SDS011;5375;51.250;6.776;2023-04-01T13:57:16;1.57;;;0.90;;
10653;SDS011;5375;51.250;6.776;2023-04-01T14:02:50;1.23;;;0.90;;
10653;SDS011;5375;51.250;6.776;2023-04-01T14:11:16;1.40;;;0.83;;
10653;SDS011;5375;51.250;6.776;2023-04-01T14:14:01;1.53;;;0.83;;
10653;SDS011;5375;51.250;6.776;2023-04-01T14:19:41;1.33;;;0.93;;
10653;SDS011;5375;51.250;6.776;2023-04-01T14:50:41;0.93;;;0.80;;
10653;SDS011;5375;51.250;6.776;2023-04-01T15:00:41;0.90;;;0.73;;
10653;SDS011;5375;51.250;6.776;2023-04-01T15:08:56;1.30;;;0.80;;
10653;SDS011;5375;51.250;6.776;2023-04-01T15:11:33;0.93;;;0.80;;
10653;SDS011;5375;51.250;6.776;2023-04-01T15:14:26;0.90;;;0.77;;
10653;SDS011;5375;51.250;6.776;2023-04-01T15:25:25;0.83;;;0.80;;
10653;SDS011;5375;51.250;6.776;2023-04-01T15:39:24;1.40;;;0.80;;
10653;SDS011;5375;51.250;6.776;2023-04-01T15:42:11;0.77;;;0.63;;
10653;SDS011;5375;51.250;6.776;2023-04-01T16:09:02;0.70;;;0.63;;
10653;SDS011;5375;51.250;6.776;2023-04-01T16:11:39;0.90;;;0.60;;
10653;SDS011;5375;51.250;6.776;2023-04-01T16:22:07;1.60;;;0.80;;
10653;SDS011;5375;51.250;6.776;2023-04-01T16:24:48;0.67;;;0.60;;
10653;SDS011;5375;51.250;6.776;2023-04-01T16:27:42;1.13;;;0.70;;
10653;SDS011;5375;51.250;6.776;2023-04-01T16:35:52;0.80;;;0.70;;
10653;SDS011;5375;51.250;6.776;2023-04-01T16:38:40;0.67;;;0.63;;
10653;SDS011;5375;51.250;6.776;2023-04-01T16:41:30;0.87;;;0.63;;
10653;SDS011;5375;51.250;6.776;2023-04-01T16:46:44;0.63;;;0.60;;
10653;SDS011;5375;51.250;6.776;2023-04-01T16:57:04;0.67;;;0.63;;
10653;SDS011;5375;51.250;6.776;2023-04-01T16:59:53;1.40;;;0.70;;
10653;SDS011;5375;51.250;6.776;2023-04-01T17:02:34;0.50;;;0.50;;
10653;SDS011;5375;51.250;6.776;2023-04-01T17:05:05;0.50;;;0.50;;
10653;SDS011;5375;51.250;6.776;2023-04-01T17:13:18;0.60;;;0.60;;
10653;SDS011;5375;51.250;6.776;2023-04-01T17:24:26;0.70;;;0.67;;
10653;SDS011;5375;51.250;6.776;2023-04-01T17:27:16;0.97;;;0.60;;
10653;SDS011;5375;51.250;6.776;2023-04-01T17:30:05;1.23;;;0.50;;
10653;SDS011;5375;51.250;6.776;2023-04-01T17:35:52;0.60;;;0.60;;
10653;SDS011;5375;51.250;6.776;2023-04-01T17:49:16;0.63;;;0.50;;
10653;SDS011;5375;51.250;6.776;2023-04-01T17:54:52;1.20;;;0.60;;
10653;SDS011;5375;51.250;6.776;2023-04-01T17:57:33;0.60;;;0.50;;
10653;SDS011;5375;51.250;6.776;2023-04-01T18:09:33;0.80;;;0.60;;
10653;SDS011;5375;51.250;6.776;2023-04-01T18:25:47;0.73;;;0.57;;
10653;SDS011;5375;51.250;6.776;2023-04-01T18:44:59;1.00;;;0.60;;
10653;SDS011;5375;51.250;6.776;2023-04-01T18:53:27;0.60;;;0.53;;
10653;SDS011;5375;51.250;6.776;2023-04-01T18:56:12;0.80;;;0.53;;
10653;SDS011;5375;51.250;6.776;2023-04-01T19:16:21;6.60;;;1.00;;
10653;SDS011;5375;51.250;6.776;2023-04-01T19:19:23;1.00;;;0.80;;
10653;SDS011;5375;51.250;6.776;2023-04-01T19:27:46;1.43;;;0.77;;
10653;SDS011;5375;51.250;6.776;2023-04-01T19:38:53;2.83;;;0.83;;
10653;SDS011;5375;51.250;6.776;2023-04-01T19:50:09;1.27;;;0.70;;
10653;SDS011;5375;51.250;6.776;2023-04-01T19:53:13;1.50;;;0.77;;
10653;SDS011;5375;51.250;6.776;2023-04-01T19:58:38;1.03;;;0.87;;
10653;SDS011;5375;51.250;6.776;2023-04-01T20:01:18;0.77;;;0.70;;
10653;SDS011;5375;51.250;6.776;2023-04-01T20:03:58;1.20;;;0.70;;
10653;SDS011;5375;51.250;6.776;2023-04-01T20:17:16;2.40;;;0.70;;
10653;SDS011;5375;51.250;6.776;2023-04-01T20:19:55;1.30;;;0.80;;
10653;SDS011;5375;51.250;6.776;2023-04-01T20:25:27;0.70;;;0.63;;
10653;SDS011;5375;51.250;6.776;2023-04-01T20:28:14;2.13;;;0.70;;
10653;SDS011;5375;51.250;6.776;2023-04-01T20:33:48;1.30;;;0.90;;
10653;SDS011;5375;51.250;6.776;2023-04-01T20:36:34;0.90;;;0.80;;
10653;SDS011;5375;51.250;6.776;2023-04-01T20:44:50;2.10;;;0.70;;
10653;SDS011;5375;51.250;6.776;2023-04-01T20:56:23;1.93;;;0.80;;
10653;SDS011;5375;51.250;6.776;2023-04-01T21:01:47;1.00;;;0.90;;
10653;SDS011;5375;51.250;6.776;2023-04-01T21:21:26;1.00;;;0.90;;
10653;SDS011;5375;51.250;6.776;2023-04-01T21:24:28;1.17;;;1.00;;
10653;SDS011;5375;51.250;6.776;2023-04-01T21:29:53;0.90;;;0.80;;
10653;SDS011;5375;51.250;6.776;2023-04-01T21:32:58;1.20;;;0.70;;
10653;SDS011;5375;51.250;6.776;2023-04-01T21:35:35;0.67;;;0.67;;
10653;SDS011;5375;51.250;6.776;2023-04-01T22:08:36;1.00;;;0.90;;
10653;SDS011;5375;51.250;6.776;2023-04-01T22:22:37;1.10;;;0.83;;
10653;SDS011;5375;51.250;6.776;2023-04-01T22:28:16;0.73;;;0.70;;
10653;SDS011;5375;51.250;6.776;2023-04-01T22:30:51;0.80;;;0.70;;
10653;SDS011;5375;51.250;6.776;2023-04-01T22:33:38;0.80;;;0.80;;
10653;SDS011;5375;51.250;6.776;2023-04-01T22:36:23;0.70;;;0.70;;
10653;SDS011;5375;51.250;6.776;2023-04-01T22:50:19;0.70;;;0.70;;
10653;SDS011;5375;51.250;6.776;2023-04-01T22:52:55;0.90;;;0.90;;
10653;SDS011;5375;51.250;6.776;2023-04-01T22:55:32;0.70;;;0.70;;
10653;SDS011;5375;51.250;6.776;2023-04-01T22:58:03;1.47;;;0.80;;
10653;SDS011;5375;51.250;6.776;2023-04-01T23:00:38;0.60;;;0.60;;
10653;SDS011;5375;51.250;6.776;2023-04-01T23:03:25;1.30;;;0.90;;
10653;SDS011;5375;51.250;6.776;2023-04-01T23:05:58;1.33;;;0.80;;
10653;SDS011;5375;51.250;6.776;2023-04-01T23:11:23;0.70;;;0.70;;
10653;SDS011;5375;51.250;6.776;2023-04-01T23:16:43;0.80;;;0.73;;
10653;SDS011;5375;51.250;6.776;2023-04-01T23:19:24;1.77;;;0.80;;
10653;SDS011;5375;51.250;6.776;2023-04-01T23:35:47;0.83;;;0.83;;
10653;SDS011;5375;51.250;6.776;2023-04-01T23:38:14;1.23;;;0.80;;
10653;SDS011;5375;51.250;6.776;2023-04-01T23:40:41;2.30;;;0.93;;
10653;SDS011;5375;51.250;6.776;2023-04-01T23:43:26;0.80;;;0.73;;
10653;SDS011;5375;51.250;6.776;2023-04-01T23:45:56;2.40;;;0.70;;
10653;SDS011;5375;51.250;6.776;2023-04-01T23:48:30;1.23;;;0.90;;
10653;SDS011;5375;51.250;6.776;2023-04-01T23:50:58;1.00;;;0.80;;
10653;SDS011;5375;51.250;6.776;2023-04-01T23:53:26;1.00;;;0.67;;
10653;SDS011;5375;51.250;6.776;2023-04-01T23:55:57;0.83;;;0.77;;
